ECPPN LEZL-LEZL

Flight info

Callsign ECPPN
Flight time 0h 17m
Altitude 5000
Route VISUAL
Aircraft PA38/L-ICAO/7000

Departure

Time 2026-05-01 08:42
Airport Seville Airport (LEZL)

Arrival

Time 2026-05-01 08:59
Airport Seville Airport (LEZL)
Time Latitude Longitude Altitude Speed Heading
2026-05-01 07:23 37.82504 -4.99849 3269 ft 105 kts 78°
2026-05-01 07:23 37.82829 -4.98056 3266 ft 104 kts 78°
2026-05-01 07:24 37.82991 -4.97161 3271 ft 104 kts 78°
2026-05-01 07:24 37.83150 -4.96266 3274 ft 105 kts 78°
2026-05-01 07:24 37.83312 -4.95363 3272 ft 105 kts 78°
2026-05-01 07:24 37.83477 -4.94459 3269 ft 105 kts 78°
2026-05-01 07:25 37.83642 -4.93561 3269 ft 105 kts 78°
2026-05-01 07:25 37.83804 -4.92665 3268 ft 105 kts 78°
2026-05-01 07:25 37.83960 -4.91765 3268 ft 105 kts 80°
2026-05-01 07:25 37.84037 -4.90851 3268 ft 104 kts 84°
2026-05-01 07:26 37.84198 -4.89953 3264 ft 105 kts 79°
2026-05-01 07:26 37.84342 -4.89051 3266 ft 105 kts 79°
2026-05-01 07:26 37.84494 -4.88150 3267 ft 105 kts 79°
2026-05-01 07:26 37.84650 -4.87250 3265 ft 104 kts 78°
2026-05-01 07:27 37.84803 -4.86355 3265 ft 104 kts 79°
2026-05-01 07:27 37.84956 -4.85462 3263 ft 104 kts 78°
2026-05-01 07:27 37.85107 -4.84567 3265 ft 104 kts 79°
2026-05-01 07:27 37.85264 -4.83673 3266 ft 104 kts 79°
2026-05-01 07:28 37.85415 -4.82777 3264 ft 104 kts 79°
2026-05-01 07:28 37.85589 -4.81887 3262 ft 104 kts 77°
2026-05-01 07:28 37.85765 -4.80997 3265 ft 104 kts 77°
2026-05-01 07:28 37.85949 -4.80111 3268 ft 103 kts 75°
2026-05-01 07:29 37.86139 -4.79262 3241 ft 99 kts 77°
2026-05-01 07:29 37.86304 -4.78414 3129 ft 101 kts 77°
2026-05-01 07:29 37.86445 -4.77548 3028 ft 99 kts 79°
2026-05-01 07:29 37.86616 -4.76688 2904 ft 100 kts 75°
2026-05-01 07:30 37.86798 -4.75863 2854 ft 97 kts 75°
2026-05-01 07:30 37.87047 -4.75088 2771 ft 95 kts 52°
2026-05-01 07:30 37.87621 -4.74688 2639 ft 96 kts
2026-05-01 07:30 37.88259 -4.74746 2563 ft 92 kts 351°
2026-05-01 07:31 37.88782 -4.75128 2471 ft 88 kts 298°
2026-05-01 07:31 37.88768 -4.77294 2306 ft 79 kts 263°
2026-05-01 07:32 37.88520 -4.78705 2069 ft 85 kts 263°
2026-05-01 07:32 37.88407 -4.79423 1937 ft 82 kts 250°
2026-05-01 07:33 37.87982 -4.80803 1586 ft 85 kts 249°
2026-05-01 07:33 37.87717 -4.81486 1380 ft 87 kts 240°
2026-05-01 07:33 37.86977 -4.82730 937 ft 88 kts 223°
2026-05-01 07:34 37.86510 -4.83217 721 ft 84 kts 212°
2026-05-01 07:34 37.85644 -4.83875 466 ft 68 kts 208°
2026-05-01 07:34 37.85236 -4.84166 415 ft 66 kts 209°
2026-05-01 07:35 37.84838 -4.84442 327 ft 63 kts 209°
2026-05-01 07:35 37.84496 -4.84678 307 ft 46 kts 207°
2026-05-01 07:35 37.84261 -4.84842 303 ft 31 kts 207°
2026-05-01 07:35 37.84106 -4.84967 299 ft 24 kts 226°
2026-05-01 07:36 37.84108 -4.84940 304 ft 17 kts 24°
2026-05-01 07:36 37.84237 -4.84854 303 ft 21 kts 26°
2026-05-01 07:36 37.84354 -4.84769 305 ft 18 kts 54°
2026-05-01 07:36 37.84325 -4.84649 306 ft 13 kts 117°
2026-05-01 07:37 37.84423 -4.84464 307 ft 12 kts 35°
2026-05-01 07:37 37.84489 -4.84401 306 ft 10 kts 14°
2026-05-01 07:37 37.84505 -4.84403 306 ft 0 kts 330°
2026-05-01 08:17 37.84506 -4.84425 306 ft 9 kts 213°
2026-05-01 08:17 37.84484 -4.84503 307 ft 13 kts 298°
2026-05-01 08:17 37.84533 -4.84612 306 ft 15 kts 306°
2026-05-01 08:17 37.84627 -4.84577 305 ft 16 kts 41°
2026-05-01 08:18 37.84704 -4.84504 306 ft 11 kts 343°
2026-05-01 08:18 37.84680 -4.84550 306 ft 8 kts 208°
2026-05-01 08:19 37.84084 -4.84960 356 ft 79 kts 206°
2026-05-01 08:19 37.83602 -4.85296 521 ft 79 kts 206°
2026-05-01 08:19 37.83124 -4.85640 659 ft 83 kts 216°
2026-05-01 08:19 37.82858 -4.86291 779 ft 87 kts 262°
2026-05-01 08:20 37.82823 -4.87048 949 ft 87 kts 270°
2026-05-01 08:20 37.82929 -4.87806 1117 ft 89 kts 285°
2026-05-01 08:20 37.83088 -4.88581 1222 ft 95 kts 284°
2026-05-01 08:20 37.83239 -4.89399 1323 ft 95 kts 282°
2026-05-01 08:21 37.83348 -4.90219 1426 ft 94 kts 277°
2026-05-01 08:21 37.83369 -4.91052 1503 ft 96 kts 271°
2026-05-01 08:21 37.83386 -4.91872 1610 ft 93 kts 271°
2026-05-01 08:21 37.83322 -4.92697 1693 ft 95 kts 256°
2026-05-01 08:22 37.83145 -4.93509 1784 ft 96 kts 254°
2026-05-01 08:22 37.82938 -4.94306 1800 ft 97 kts 250°
2026-05-01 08:22 37.82730 -4.95128 1843 ft 97 kts 254°
2026-05-01 08:22 37.82526 -4.95939 1885 ft 98 kts 250°
2026-05-01 08:23 37.82286 -4.96737 1927 ft 96 kts 249°
2026-05-01 08:23 37.82015 -4.97523 1959 ft 97 kts 245°
2026-05-01 08:23 37.81710 -4.98291 1989 ft 98 kts 244°
2026-05-01 08:23 37.81428 -4.99066 2027 ft 98 kts 246°
2026-05-01 08:24 37.81148 -4.99854 2038 ft 98 kts 244°
2026-05-01 08:24 37.80844 -5.00625 2062 ft 98 kts 243°
2026-05-01 08:24 37.80531 -5.01389 2101 ft 97 kts 244°
2026-05-01 08:24 37.80253 -5.02159 2145 ft 96 kts 245°
2026-05-01 08:25 37.79976 -5.02917 2188 ft 94 kts 247°
2026-05-01 08:25 37.79801 -5.03412 2224 ft 93 kts 245°
2026-05-01 08:25 37.79442 -5.04408 2285 ft 93 kts 246°
2026-05-01 08:25 37.79182 -5.05152 2328 ft 92 kts 246°
2026-05-01 08:26 37.78919 -5.05887 2382 ft 93 kts 246°
2026-05-01 08:26 37.78656 -5.06633 2429 ft 92 kts 246°
2026-05-01 08:26 37.78395 -5.07365 2480 ft 91 kts 246°
2026-05-01 08:26 37.78187 -5.08113 2522 ft 89 kts 250°
2026-05-01 08:27 37.78061 -5.08606 2560 ft 89 kts 255°
2026-05-01 08:27 37.77894 -5.09357 2639 ft 90 kts 252°
2026-05-01 08:27 37.77723 -5.10116 2714 ft 90 kts 253°
2026-05-01 08:27 37.77555 -5.10879 2785 ft 89 kts 254°
2026-05-01 08:28 37.77388 -5.11631 2857 ft 89 kts 253°
2026-05-01 08:28 37.77270 -5.12395 2937 ft 90 kts 264°
2026-05-01 08:28 37.77186 -5.13198 3019 ft 95 kts 261°
2026-05-01 08:28 37.77112 -5.14023 3090 ft 93 kts 265°
2026-05-01 08:29 37.77032 -5.14831 3177 ft 94 kts 260°
2026-05-01 08:29 37.76965 -5.15648 3231 ft 93 kts 262°
2026-05-01 08:29 37.76883 -5.16439 3320 ft 90 kts 261°
2026-05-01 08:29 37.76813 -5.17265 3384 ft 95 kts 262°
2026-05-01 08:30 37.76689 -5.18071 3464 ft 93 kts 244°
2026-05-01 08:30 37.76421 -5.18798 3540 ft 89 kts 241°
2026-05-01 08:30 37.76164 -5.19520 3619 ft 91 kts 242°
2026-05-01 08:30 37.75904 -5.20250 3676 ft 89 kts 242°
2026-05-01 08:31 37.75645 -5.20968 3753 ft 90 kts 243°
2026-05-01 08:31 37.75395 -5.21689 3822 ft 89 kts 243°
2026-05-01 08:31 37.75137 -5.22394 3912 ft 91 kts 240°
2026-05-01 08:31 37.74810 -5.23057 3972 ft 86 kts 229°
2026-05-01 08:32 37.74483 -5.23696 4028 ft 92 kts 234°
2026-05-01 08:32 37.74109 -5.24399 4014 ft 98 kts 234°
2026-05-01 08:32 37.73731 -5.25121 4037 ft 103 kts 232°
2026-05-01 08:32 37.73328 -5.25885 4027 ft 100 kts 232°
2026-05-01 08:33 37.72959 -5.26606 4008 ft 95 kts 234°
2026-05-01 08:33 37.72585 -5.27298 4015 ft 95 kts 233°
2026-05-01 08:33 37.72223 -5.27983 4015 ft 94 kts 232°
2026-05-01 08:33 37.71883 -5.28690 4015 ft 94 kts 234°
2026-05-01 08:34 37.71528 -5.29353 4016 ft 87 kts 232°
2026-05-01 08:34 37.71193 -5.29979 4020 ft 85 kts 234°
2026-05-01 08:34 37.70859 -5.30642 4022 ft 92 kts 236°
2026-05-01 08:34 37.70513 -5.31289 4026 ft 89 kts 231°
2026-05-01 08:35 37.70166 -5.31952 4032 ft 92 kts 232°
2026-05-01 08:35 37.69802 -5.32634 4032 ft 93 kts 232°
2026-05-01 08:35 37.69446 -5.33305 4017 ft 89 kts 232°
2026-05-01 08:35 37.69107 -5.33941 4036 ft 87 kts 233°
2026-05-01 08:36 37.68766 -5.34598 4010 ft 87 kts 232°
2026-05-01 08:36 37.68442 -5.35215 4019 ft 85 kts 232°
2026-05-01 08:36 37.68112 -5.35853 4028 ft 88 kts 233°
2026-05-01 08:36 37.67782 -5.36493 4017 ft 85 kts 232°
2026-05-01 08:37 37.67458 -5.37106 4024 ft 84 kts 232°
2026-05-01 08:37 37.67131 -5.37741 4009 ft 87 kts 231°
2026-05-01 08:37 37.66863 -5.38453 4027 ft 93 kts 247°
2026-05-01 08:37 37.66627 -5.39196 4023 ft 90 kts 245°
2026-05-01 08:38 37.66392 -5.39927 3956 ft 92 kts 243°
2026-05-01 08:38 37.66132 -5.40703 3834 ft 99 kts 242°
2026-05-01 08:38 37.65851 -5.41493 3718 ft 99 kts 244°
2026-05-01 08:38 37.65581 -5.42294 3591 ft 99 kts 245°
2026-05-01 08:39 37.65311 -5.43110 3488 ft 101 kts 244°
2026-05-01 08:39 37.65027 -5.43933 3360 ft 104 kts 245°
2026-05-01 08:39 37.64736 -5.44762 3221 ft 101 kts 243°
2026-05-01 08:39 37.64514 -5.45582 3095 ft 98 kts 253°
2026-05-01 08:40 37.64137 -5.47215 3013 ft 95 kts 249°
2026-05-01 08:40 37.63940 -5.47993 3016 ft 92 kts 251°
2026-05-01 08:40 37.63766 -5.48738 3014 ft 89 kts 251°
2026-05-01 08:41 37.63596 -5.49468 3015 ft 86 kts 252°
2026-05-01 08:41 37.63422 -5.50245 3026 ft 98 kts 250°
2026-05-01 08:41 37.63222 -5.51070 3023 ft 99 kts 252°
2026-05-01 08:41 37.63025 -5.51888 3030 ft 97 kts 250°
2026-05-01 08:42 37.62839 -5.52699 3036 ft 96 kts 249°
2026-05-01 08:42 37.62651 -5.53534 3028 ft 101 kts 251°
2026-05-01 08:42 37.62451 -5.54388 3029 ft 102 kts 249°
2026-05-01 08:42 37.62247 -5.55237 3032 ft 102 kts 254°
2026-05-01 08:43 37.62055 -5.56084 3022 ft 98 kts 250°
2026-05-01 08:43 37.61872 -5.56916 3027 ft 100 kts 252°
2026-05-01 08:43 37.61685 -5.57756 3020 ft 98 kts 250°
2026-05-01 08:43 37.61490 -5.58577 3018 ft 97 kts 250°
2026-05-01 08:44 37.61285 -5.59382 3013 ft 97 kts 250°
2026-05-01 08:44 37.61096 -5.60192 3019 ft 95 kts 250°
2026-05-01 08:44 37.60902 -5.61001 3016 ft 97 kts 252°
2026-05-01 08:44 37.60711 -5.61812 3016 ft 96 kts 250°
2026-05-01 08:45 37.60520 -5.62616 3015 ft 96 kts 251°
2026-05-01 08:45 37.60330 -5.63421 3018 ft 96 kts 250°
2026-05-01 08:45 37.60129 -5.64233 3020 ft 98 kts 251°
2026-05-01 08:45 37.59936 -5.65055 3020 ft 98 kts 250°
2026-05-01 08:46 37.59742 -5.65865 3021 ft 98 kts 252°
2026-05-01 08:46 37.59544 -5.66689 3023 ft 98 kts 250°
2026-05-01 08:46 37.59350 -5.67514 3021 ft 98 kts 251°
2026-05-01 08:46 37.59152 -5.68335 3027 ft 98 kts 251°
2026-05-01 08:47 37.58958 -5.69167 3021 ft 100 kts 250°
2026-05-01 08:47 37.58756 -5.70021 3026 ft 102 kts 250°
2026-05-01 08:47 37.58553 -5.70890 3032 ft 104 kts 251°
2026-05-01 08:47 37.58340 -5.71777 3031 ft 105 kts 251°
2026-05-01 08:48 37.58131 -5.72658 3031 ft 105 kts 250°
2026-05-01 08:48 37.57926 -5.73530 3033 ft 105 kts 251°
2026-05-01 08:48 37.57711 -5.74413 3031 ft 105 kts 250°
2026-05-01 08:48 37.57495 -5.75308 3028 ft 105 kts 251°
2026-05-01 08:49 37.57283 -5.76178 3029 ft 105 kts 251°
2026-05-01 08:49 37.57072 -5.77061 3029 ft 105 kts 250°
2026-05-01 08:49 37.56855 -5.77940 3027 ft 105 kts 250°
2026-05-01 08:49 37.56643 -5.78823 3028 ft 105 kts 250°
2026-05-01 08:50 37.56430 -5.79708 3030 ft 106 kts 250°
2026-05-01 08:50 37.56218 -5.80597 3030 ft 107 kts 250°
2026-05-01 08:50 37.56005 -5.81487 2918 ft 111 kts 251°
2026-05-01 08:50 37.55781 -5.82404 2792 ft 108 kts 250°
2026-05-01 08:51 37.55551 -5.83296 2648 ft 105 kts 250°
2026-05-01 08:51 37.55333 -5.84159 2514 ft 101 kts 250°
2026-05-01 08:51 37.55119 -5.85004 2382 ft 101 kts 251°
2026-05-01 08:51 37.54903 -5.85844 2204 ft 103 kts 250°
2026-05-01 08:52 37.54666 -5.86709 1950 ft 105 kts 241°
2026-05-01 08:52 37.54121 -5.87281 1692 ft 103 kts 212°
2026-05-01 08:52 37.53522 -5.87758 1432 ft 102 kts 193°
2026-05-01 08:52 37.52840 -5.87887 1174 ft 97 kts 191°
2026-05-01 08:53 37.52186 -5.88043 1023 ft 90 kts 188°
2026-05-01 08:53 37.51582 -5.88168 1014 ft 89 kts 189°
2026-05-01 08:53 37.50962 -5.88304 1015 ft 91 kts 188°
2026-05-01 08:53 37.50332 -5.88439 1013 ft 92 kts 189°
2026-05-01 08:54 37.49697 -5.88572 1014 ft 93 kts 188°
2026-05-01 08:54 37.49064 -5.88700 1037 ft 92 kts 189°
2026-05-01 08:54 37.48434 -5.88820 1049 ft 92 kts 187°
2026-05-01 08:54 37.47797 -5.88941 1049 ft 93 kts 187°
2026-05-01 08:55 37.47163 -5.89046 1065 ft 91 kts 185°
2026-05-01 08:55 37.46521 -5.89136 1068 ft 93 kts 186°
2026-05-01 08:55 37.45888 -5.89262 1102 ft 93 kts 188°
2026-05-01 08:55 37.45260 -5.89402 1144 ft 92 kts 188°
2026-05-01 08:56 37.44632 -5.89567 1178 ft 92 kts 188°
2026-05-01 08:56 37.43997 -5.89744 1126 ft 95 kts 191°
2026-05-01 08:56 37.43343 -5.89864 1098 ft 93 kts 187°
2026-05-01 08:56 37.42702 -5.89993 946 ft 96 kts 185°
2026-05-01 08:57 37.42035 -5.89961 816 ft 96 kts 174°
2026-05-01 08:57 37.41383 -5.89877 778 ft 93 kts 174°
2026-05-01 08:57 37.40786 -5.89617 744 ft 94 kts 135°
2026-05-01 08:57 37.40536 -5.88879 719 ft 89 kts 103°
2026-05-01 08:58 37.40476 -5.88123 679 ft 85 kts 93°
2026-05-01 08:58 37.40481 -5.87443 685 ft 75 kts 89°
2026-05-01 08:58 37.40706 -5.86859 627 ft 81 kts 28°
2026-05-01 08:58 37.41265 -5.86790 510 ft 83 kts 360°
2026-05-01 08:59 37.41708 -5.87151 276 ft 75 kts 301°
2026-05-01 08:59 37.41793 -5.87741 122 ft 62 kts 270°
2026-05-01 08:59 37.41791 -5.88188 111 ft 43 kts 266°
2026-05-01 08:59 37.41795 -5.88555 100 ft 38 kts 271°
2026-05-01 09:00 37.41795 -5.88861 98 ft 32 kts 268°
2026-05-01 09:00 37.41796 -5.89117 96 ft 26 kts 275°
2026-05-01 09:00 37.41883 -5.89283 94 ft 22 kts 330°
2026-05-01 09:00 37.41973 -5.89383 93 ft 20 kts 288°
2026-05-01 09:01 37.41985 -5.89549 93 ft 18 kts 272°
2026-05-01 09:01 37.41981 -5.89707 91 ft 23 kts 268°
2026-05-01 09:01 37.41980 -5.89947 90 ft 27 kts 270°
2026-05-01 09:01 37.41980 -5.90169 90 ft 23 kts 269°
2026-05-01 09:02 37.42014 -5.90302 91 ft 18 kts 342°
2026-05-01 09:02 37.42043 -5.90451 90 ft 23 kts 271°
2026-05-01 09:02 37.42041 -5.90630 88 ft 16 kts 295°
2026-05-01 09:02 37.42112 -5.90693 88 ft 10 kts 45°
2026-05-01 09:03 37.42114 -5.90651 88 ft 3 kts 89°
2026-05-01 09:03 37.42114 -5.90646 91 ft 0 kts 88°
2026-05-01 09:27 37.42115 -5.90628 91 ft 9 kts 89°
2026-05-01 09:27 37.42050 -5.90587 90 ft 13 kts 141°
2026-05-01 09:28 37.41984 -5.90512 89 ft 14 kts 103°
2026-05-01 09:28 37.41982 -5.90378 89 ft 17 kts 92°
2026-05-01 09:28 37.41980 -5.90208 90 ft 23 kts 90°
2026-05-01 09:28 37.41982 -5.89967 90 ft 29 kts 90°
2026-05-01 09:29 37.41983 -5.89451 93 ft 27 kts 88°
2026-05-01 09:29 37.41983 -5.89243 94 ft 23 kts 90°
2026-05-01 09:30 37.41982 -5.88789 97 ft 20 kts 113°
2026-05-01 09:30 37.41865 -5.88772 98 ft 19 kts 192°
2026-05-01 09:30 37.41797 -5.89040 97 ft 37 kts 271°
2026-05-01 09:31 37.41797 -5.89556 122 ft 73 kts 272°
2026-05-01 09:31 37.41786 -5.90228 233 ft 81 kts 270°
2026-05-01 09:31 37.41574 -5.91633 531 ft 88 kts 219°
2026-05-01 09:32 37.40996 -5.91828 697 ft 85 kts 188°
2026-05-01 09:32 37.39849 -5.91927 1037 ft 83 kts 181°
2026-05-01 09:32 37.39259 -5.91895 1205 ft 85 kts 173°
2026-05-01 09:33 37.38658 -5.91886 1321 ft 90 kts 188°
2026-05-01 09:33 37.38051 -5.92032 1417 ft 88 kts 191°
2026-05-01 09:33 37.36805 -5.92388 1441 ft 92 kts 192°
2026-05-01 09:34 37.36180 -5.92570 1370 ft 92 kts 194°
2026-05-01 09:34 37.35587 -5.92809 1301 ft 89 kts 196°
2026-05-01 09:34 37.34425 -5.93262 1113 ft 86 kts 193°
2026-05-01 09:35 37.33901 -5.93635 1078 ft 87 kts 202°
2026-05-01 09:35 37.32808 -5.93116 984 ft 88 kts 154°
2026-05-01 09:35 37.32212 -5.92931 968 ft 91 kts 179°
2026-05-01 09:36 37.31576 -5.92939 1015 ft 93 kts 182°
2026-05-01 09:36 37.30936 -5.93144 1036 ft 96 kts 200°
2026-05-01 09:36 37.30348 -5.93537 1063 ft 97 kts 213°
2026-05-01 09:36 37.29717 -5.93715 1108 ft 97 kts 170°
2026-05-01 09:37 37.29126 -5.93343 1164 ft 95 kts 144°
2026-05-01 09:37 37.28114 -5.92238 1245 ft 96 kts 137°
2026-05-01 09:37 37.27601 -5.91697 1262 ft 97 kts 148°
2026-05-01 09:38 37.26488 -5.90730 1197 ft 100 kts 144°
2026-05-01 09:38 37.25913 -5.90243 1169 ft 100 kts 149°
2026-05-01 09:38 37.25325 -5.89766 1138 ft 100 kts 148°
2026-05-01 09:39 37.24180 -5.88822 1083 ft 99 kts 147°
2026-05-01 09:39 37.23602 -5.88348 1054 ft 99 kts 148°
2026-05-01 09:39 37.23038 -5.87877 1077 ft 94 kts 148°
2026-05-01 09:40 37.22498 -5.87436 1149 ft 92 kts 147°
2026-05-01 09:40 37.21459 -5.86601 1363 ft 81 kts 146°
2026-05-01 09:40 37.20995 -5.86212 1481 ft 81 kts 147°
2026-05-01 09:41 37.20512 -5.85815 1610 ft 84 kts 147°
2026-05-01 09:41 37.19539 -5.85013 1858 ft 86 kts 149°
2026-05-01 09:41 37.19070 -5.84580 1987 ft 81 kts 142°
2026-05-01 09:42 37.18638 -5.84158 2098 ft 79 kts 136°
2026-05-01 09:42 37.18392 -5.83522 2240 ft 89 kts 107°
2026-05-01 09:42 37.18689 -5.82089 2492 ft 88 kts 78°
2026-05-01 09:43 37.19496 -5.81043 2773 ft 106 kts 344°
2026-05-01 09:43 37.20204 -5.81260 2889 ft 101 kts 349°
2026-05-01 09:43 37.20879 -5.81460 2999 ft 101 kts 348°
2026-05-01 09:44 37.22233 -5.81924 2884 ft 106 kts 345°
2026-05-01 09:44 37.22907 -5.82223 2772 ft 99 kts 335°
2026-05-01 09:44 37.23542 -5.82643 2571 ft 104 kts 324°
2026-05-01 09:45 37.24125 -5.83162 2380 ft 104 kts 327°
2026-05-01 09:45 37.25295 -5.84175 2012 ft 107 kts 333°
2026-05-01 09:45 37.25917 -5.84637 1813 ft 100 kts 326°
2026-05-01 09:46 37.26492 -5.85102 1689 ft 95 kts 327°
2026-05-01 09:46 37.27036 -5.85535 1462 ft 93 kts 324°
2026-05-01 09:46 37.27541 -5.86020 1232 ft 92 kts 322°
2026-05-01 09:46 37.28032 -5.86510 1039 ft 90 kts 320°
2026-05-01 09:47 37.28511 -5.86958 1033 ft 81 kts 325°
2026-05-01 09:47 37.28983 -5.87339 1028 ft 83 kts 325°
2026-05-01 09:47 37.29533 -5.87621 1039 ft 90 kts 347°
2026-05-01 09:47 37.30147 -5.87858 1049 ft 95 kts 342°
2026-05-01 09:48 37.30782 -5.88105 1047 ft 98 kts 343°
2026-05-01 09:48 37.31429 -5.88341 1047 ft 96 kts 343°
2026-05-01 09:48 37.32068 -5.88597 1046 ft 98 kts 342°
2026-05-01 09:48 37.32728 -5.88814 1050 ft 98 kts 353°
2026-05-01 09:49 37.33395 -5.89022 1045 ft 100 kts 344°
2026-05-01 09:49 37.34069 -5.89187 1044 ft 98 kts 348°
2026-05-01 09:49 37.34735 -5.89354 1047 ft 99 kts 351°
2026-05-01 09:49 37.35422 -5.89488 1048 ft 100 kts 354°
2026-05-01 09:50 37.36106 -5.89588 1046 ft 98 kts 352°
2026-05-01 09:50 37.36792 -5.89698 1050 ft 100 kts 354°
2026-05-01 09:50 37.37485 -5.89787 1042 ft 101 kts
2026-05-01 09:50 37.37937 -5.89215 1039 ft 98 kts 80°
2026-05-01 09:51 37.38102 -5.88387 1038 ft 98 kts 73°
2026-05-01 09:51 37.38208 -5.87553 1038 ft 96 kts 85°
2026-05-01 09:51 37.38283 -5.86717 1035 ft 95 kts 94°
2026-05-01 09:51 37.38299 -5.85890 1038 ft 95 kts 86°
2026-05-01 09:52 37.38335 -5.85065 1040 ft 96 kts 89°
2026-05-01 09:52 37.38374 -5.84232 1037 ft 96 kts 89°
2026-05-01 09:52 37.38410 -5.83392 1039 ft 96 kts 88°
2026-05-01 09:52 37.38446 -5.82564 1036 ft 95 kts 88°
2026-05-01 09:53 37.38481 -5.81737 1037 ft 95 kts 89°
2026-05-01 09:53 37.38519 -5.80908 1037 ft 95 kts 89°
2026-05-01 09:53 37.38549 -5.80087 1037 ft 94 kts 88°
2026-05-01 09:53 37.38582 -5.79263 1037 ft 95 kts 88°
2026-05-01 09:54 37.38612 -5.78430 1036 ft 95 kts 88°
2026-05-01 09:54 37.38641 -5.77611 1039 ft 96 kts 88°
2026-05-01 09:54 37.38675 -5.76768 1035 ft 95 kts 89°
2026-05-01 09:54 37.38703 -5.75947 1033 ft 95 kts 88°
2026-05-01 09:55 37.38740 -5.75119 1032 ft 95 kts 89°
2026-05-01 09:55 37.38847 -5.74306 1023 ft 97 kts 57°
2026-05-01 09:55 37.39452 -5.74200 1036 ft 95 kts 342°
2026-05-01 09:55 37.40106 -5.74358 1041 ft 97 kts 349°
2026-05-01 09:56 37.40765 -5.74549 1042 ft 96 kts 348°
2026-05-01 09:56 37.41418 -5.74732 1042 ft 96 kts 347°
2026-05-01 09:56 37.42072 -5.74923 1044 ft 96 kts 347°
2026-05-01 09:56 37.42727 -5.75115 1042 ft 97 kts 346°
2026-05-01 09:57 37.43387 -5.75300 1044 ft 97 kts 347°
2026-05-01 09:57 37.44045 -5.75485 1044 ft 97 kts 347°
2026-05-01 09:57 37.44704 -5.75678 1047 ft 97 kts 347°
2026-05-01 09:57 37.45363 -5.75867 1048 ft 97 kts 347°
2026-05-01 09:58 37.46023 -5.76060 1043 ft 98 kts 347°
2026-05-01 09:58 37.46686 -5.76252 1045 ft 98 kts 347°
2026-05-01 09:58 37.47354 -5.76447 1047 ft 99 kts 347°
2026-05-01 09:58 37.48024 -5.76633 1050 ft 99 kts 347°
2026-05-01 09:59 37.48697 -5.76831 1042 ft 99 kts 347°
2026-05-01 09:59 37.49364 -5.77031 1048 ft 99 kts 347°
2026-05-01 09:59 37.50036 -5.77227 1049 ft 99 kts 346°
2026-05-01 09:59 37.50691 -5.77417 1150 ft 95 kts 347°
2026-05-01 10:00 37.51326 -5.77611 1268 ft 94 kts 347°
2026-05-01 10:00 37.51953 -5.77799 1404 ft 94 kts 347°
2026-05-01 10:00 37.52591 -5.77990 1521 ft 94 kts 346°
2026-05-01 10:00 37.53151 -5.78355 1633 ft 95 kts 293°
2026-05-01 10:01 37.52820 -5.78932 1723 ft 89 kts 213°
2026-05-01 10:01 37.52757 -5.79633 1866 ft 94 kts 294°
2026-05-01 10:01 37.52950 -5.80388 1980 ft 95 kts 277°
2026-05-01 10:01 37.53037 -5.81214 2065 ft 93 kts 272°
2026-05-01 10:02 37.53082 -5.82059 2116 ft 96 kts 269°
2026-05-01 10:02 37.53096 -5.82879 2184 ft 92 kts 270°
2026-05-01 10:02 37.53189 -5.83675 2152 ft 95 kts 283°
2026-05-01 10:02 37.53178 -5.84501 2074 ft 102 kts 250°
2026-05-01 10:03 37.52863 -5.85304 2005 ft 102 kts 239°
2026-05-01 10:03 37.52536 -5.86068 1942 ft 100 kts 238°
2026-05-01 10:03 37.52189 -5.86834 1793 ft 99 kts 238°
2026-05-01 10:03 37.51771 -5.87521 1703 ft 95 kts 216°
2026-05-01 10:04 37.51192 -5.87903 1568 ft 97 kts 200°
2026-05-01 10:04 37.50575 -5.88230 1386 ft 95 kts 212°
2026-05-01 10:04 37.50085 -5.88774 1170 ft 94 kts 213°
2026-05-01 10:04 37.49443 -5.89022 954 ft 93 kts 191°
2026-05-01 10:05 37.48817 -5.89137 851 ft 91 kts 186°
2026-05-01 10:05 37.48189 -5.89194 801 ft 91 kts 185°
2026-05-01 10:05 37.47561 -5.89223 818 ft 89 kts 181°
2026-05-01 10:05 37.46946 -5.89237 847 ft 87 kts 181°
2026-05-01 10:06 37.46340 -5.89229 892 ft 88 kts 180°
2026-05-01 10:06 37.45732 -5.89229 930 ft 86 kts 180°
2026-05-01 10:06 37.45130 -5.89221 963 ft 87 kts 178°
2026-05-01 10:06 37.44538 -5.89016 985 ft 89 kts 156°
2026-05-01 10:07 37.43946 -5.88760 991 ft 90 kts 168°
2026-05-01 10:07 37.43335 -5.88629 997 ft 89 kts 169°
2026-05-01 10:07 37.42729 -5.88602 1015 ft 87 kts 185°
2026-05-01 10:07 37.42114 -5.88650 1014 ft 90 kts 182°
2026-05-01 10:08 37.40882 -5.88729 1037 ft 89 kts 182°
2026-05-01 10:08 37.40268 -5.88796 1016 ft 88 kts 186°
2026-05-01 10:08 37.39666 -5.88931 958 ft 90 kts 193°
2026-05-01 10:09 37.39054 -5.89119 908 ft 90 kts 193°
2026-05-01 10:09 37.38452 -5.89264 890 ft 88 kts 190°
2026-05-01 10:09 37.37832 -5.89315 847 ft 90 kts 169°
2026-05-01 10:09 37.37339 -5.88846 836 ft 91 kts 122°
2026-05-01 10:10 37.37173 -5.88366 844 ft 91 kts 110°
2026-05-01 10:10 37.36936 -5.87334 908 ft 94 kts 106°
2026-05-01 10:10 37.37033 -5.86000 1039 ft 92 kts 73°
2026-05-01 10:11 37.37255 -5.85249 1103 ft 91 kts 72°
2026-05-01 10:11 37.37460 -5.84506 1118 ft 88 kts 73°
2026-05-01 10:11 37.37829 -5.83923 1021 ft 93 kts 16°
2026-05-01 10:11 37.38440 -5.83952 1006 ft 86 kts 350°
2026-05-01 10:12 37.39021 -5.84091 948 ft 82 kts 349°
2026-05-01 10:12 37.39565 -5.84232 902 ft 79 kts 348°
2026-05-01 10:12 37.40599 -5.84577 775 ft 73 kts 345°
2026-05-01 10:13 37.41056 -5.84837 736 ft 70 kts 320°
2026-05-01 10:13 37.41420 -5.85278 613 ft 71 kts 310°
2026-05-01 10:13 37.41645 -5.85825 502 ft 68 kts 291°
2026-05-01 10:14 37.41793 -5.86960 244 ft 64 kts 272°
2026-05-01 10:14 37.41795 -5.87488 135 ft 58 kts 272°
2026-05-01 10:14 37.41797 -5.87924 105 ft 30 kts 271°
2026-05-01 10:14 37.41797 -5.88026 103 ft 0 kts 269°